X  Sluiten METAR luchtvaart weer gegevens      EHRD Rotterdam The Hague Airport
Temperatuur
14°C Temperatuur
11°C Dauwpunt
82% Vochtigheid



Wind
8 KM/U
5 MPH
2 M/S
4 KTS



Kalm
Noord
Huidig weer

Wat bewolking Wat bewolking
Luchtdruk 999.92 (hPa) - 29.53 (inHg)
Zicht 6.2 (mijl) - 10 (km)
Vliegveld
Vliegveld code EHRD

Locatie : Rotterdam The Hague Airport
Afstand: 16 (km)

Metar:
EHRD 261355Z AUTO VRB04KT 9999 FEW015CB OVC028 14/11 Q1000 NOSIG

Tijd: 26-09-2020 15:55 CEST